sensor_id;sensor_type;location;lat;lon;timestamp;pressure;altitude;pressure_sealevel;temperature;humidity
65546;BME280;52177;55.968;37.498;2024-02-26T00:00:09;100773.28;;;-0.60;62.69
65546;BME280;52177;55.968;37.498;2024-02-26T00:00:40;100772.44;;;-0.60;62.51
65546;BME280;52177;55.968;37.498;2024-02-26T00:01:10;100769.81;;;-0.60;62.62
65546;BME280;52177;55.968;37.498;2024-02-26T00:01:41;100767.97;;;-0.58;62.58
65546;BME280;52177;55.968;37.498;2024-02-26T00:02:13;100779.34;;;-0.59;62.41
65546;BME280;52177;55.968;37.498;2024-02-26T00:02:44;100771.56;;;-0.61;62.44
65546;BME280;52177;55.968;37.498;2024-02-26T00:03:15;100774.19;;;-0.61;62.31
65546;BME280;52177;55.968;37.498;2024-02-26T00:03:45;100777.66;;;-0.60;62.24
65546;BME280;52177;55.968;37.498;2024-02-26T00:04:17;100776.78;;;-0.61;62.45
65546;BME280;52177;55.968;37.498;2024-02-26T00:04:47;100775.13;;;-0.62;62.13
65546;BME280;52177;55.968;37.498;2024-02-26T00:05:18;100770.66;;;-0.60;62.19
65546;BME280;52177;55.968;37.498;2024-02-26T00:05:48;100775.88;;;-0.60;62.07
65546;BME280;52177;55.968;37.498;2024-02-26T00:06:22;100787.19;;;-0.59;62.39
65546;BME280;52177;55.968;37.498;2024-02-26T00:06:52;100769.03;;;-0.62;62.18
65546;BME280;52177;55.968;37.498;2024-02-26T00:07:24;100770.03;;;-0.65;62.25
65546;BME280;52177;55.968;37.498;2024-02-26T00:07:54;100775.34;;;-0.67;62.56
65546;BME280;52177;55.968;37.498;2024-02-26T00:08:26;100778.81;;;-0.66;62.77
65546;BME280;52177;55.968;37.498;2024-02-26T00:08:56;100764.81;;;-0.65;62.96
65546;BME280;52177;55.968;37.498;2024-02-26T00:09:27;100764.81;;;-0.65;63.01
65546;BME280;52177;55.968;37.498;2024-02-26T00:09:57;100764.81;;;-0.65;62.87
65546;BME280;52177;55.968;37.498;2024-02-26T00:10:34;100769.09;;;-0.64;63.11
65546;BME280;52177;55.968;37.498;2024-02-26T00:11:05;100771.72;;;-0.64;63.13
65546;BME280;52177;55.968;37.498;2024-02-26T00:11:36;100778.75;;;-0.65;63.48
65546;BME280;52177;55.968;37.498;2024-02-26T00:12:06;100769.28;;;-0.67;62.73
65546;BME280;52177;55.968;37.498;2024-02-26T00:12:37;100769.28;;;-0.67;63.00
65546;BME280;52177;55.968;37.498;2024-02-26T00:13:09;100772.66;;;-0.65;63.26
65546;BME280;52177;55.968;37.498;2024-02-26T00:13:39;100775.28;;;-0.65;63.35
65546;BME280;52177;55.968;37.498;2024-02-26T00:14:10;100777.97;;;-0.67;63.35
65546;BME280;52177;55.968;37.498;2024-02-26T00:14:40;100760.63;;;-0.69;63.73
65546;BME280;52177;55.968;37.498;2024-02-26T00:15:11;100764.09;;;-0.69;63.71
65546;BME280;52177;55.968;37.498;2024-02-26T00:15:41;100765.81;;;-0.68;63.63
65546;BME280;52177;55.968;37.498;2024-02-26T00:16:12;100762.31;;;-0.68;63.34
65546;BME280;52177;55.968;37.498;2024-02-26T00:16:45;100772.91;;;-0.70;63.24
65546;BME280;52177;55.968;37.498;2024-02-26T00:17:16;100774.66;;;-0.70;63.41
65546;BME280;52177;55.968;37.498;2024-02-26T00:17:46;100765.09;;;-0.71;63.31
65546;BME280;52177;55.968;37.498;2024-02-26T00:18:17;100775.50;;;-0.70;63.69
65546;BME280;52177;55.968;37.498;2024-02-26T00:18:47;100762.50;;;-0.71;63.53
65546;BME280;52177;55.968;37.498;2024-02-26T00:19:17;100773.81;;;-0.71;63.18
65546;BME280;52177;55.968;37.498;2024-02-26T00:19:48;100765.88;;;-0.69;63.41
65546;BME280;52177;55.968;37.498;2024-02-26T00:20:18;100771.13;;;-0.69;63.60
65546;BME280;52177;55.968;37.498;2024-02-26T00:20:48;100763.25;;;-0.69;63.84
65546;BME280;52177;55.968;37.498;2024-02-26T00:21:19;100758.03;;;-0.69;63.81
65546;BME280;52177;55.968;37.498;2024-02-26T00:21:49;100763.09;;;-0.66;63.69
65546;BME280;52177;55.968;37.498;2024-02-26T00:22:20;100765.72;;;-0.66;63.47
65546;BME280;52177;55.968;37.498;2024-02-26T00:22:52;100763.09;;;-0.66;63.46
65546;BME280;52177;55.968;37.498;2024-02-26T00:23:22;100764.81;;;-0.65;63.63
65546;BME280;52177;55.968;37.498;2024-02-26T00:23:54;100762.25;;;-0.67;63.52
65546;BME280;52177;55.968;37.498;2024-02-26T00:24:25;100767.50;;;-0.67;63.38
65546;BME280;52177;55.968;37.498;2024-02-26T00:24:55;100765.72;;;-0.66;63.35
65546;BME280;52177;55.968;37.498;2024-02-26T00:25:25;100767.41;;;-0.65;63.36
65546;BME280;52177;55.968;37.498;2024-02-26T00:25:56;100765.66;;;-0.65;63.52
65546;BME280;52177;55.968;37.498;2024-02-26T00:26:26;100765.56;;;-0.63;63.50
65546;BME280;52177;55.968;37.498;2024-02-26T00:26:56;100768.19;;;-0.63;63.34
65546;BME280;52177;55.968;37.498;2024-02-26T00:27:27;100764.63;;;-0.62;63.30
65546;BME280;52177;55.968;37.498;2024-02-26T00:27:57;100766.41;;;-0.62;63.11
65546;BME280;52177;55.968;37.498;2024-02-26T00:28:27;100764.63;;;-0.62;63.23
65546;BME280;52177;55.968;37.498;2024-02-26T00:28:59;100769.81;;;-0.60;63.15
65546;BME280;52177;55.968;37.498;2024-02-26T00:29:29;100763.81;;;-0.62;63.36
65546;BME280;52177;55.968;37.498;2024-02-26T00:30:00;100766.31;;;-0.61;63.44
65546;BME280;52177;55.968;37.498;2024-02-26T00:30:30;100773.34;;;-0.61;63.17
65546;BME280;52177;55.968;37.498;2024-02-26T00:31:00;100761.19;;;-0.62;63.19
65546;BME280;52177;55.968;37.498;2024-02-26T00:31:31;100763.81;;;-0.62;63.41
65546;BME280;52177;55.968;37.498;2024-02-26T00:32:01;100757.72;;;-0.63;63.31
65546;BME280;52177;55.968;37.498;2024-02-26T00:32:32;100759.56;;;-0.65;63.32
65546;BME280;52177;55.968;37.498;2024-02-26T00:33:02;100759.56;;;-0.65;63.35
65546;BME280;52177;55.968;37.498;2024-02-26T00:33:33;100759.47;;;-0.64;63.11
65546;BME280;52177;55.968;37.498;2024-02-26T00:34:03;100765.56;;;-0.63;63.23
65546;BME280;52177;55.968;37.498;2024-02-26T00:34:34;100756.78;;;-0.62;63.01
65546;BME280;52177;55.968;37.498;2024-02-26T00:35:05;100760.25;;;-0.61;63.13
65546;BME280;52177;55.968;37.498;2024-02-26T00:35:36;100760.34;;;-0.63;63.15
65546;BME280;52177;55.968;37.498;2024-02-26T00:36:06;100762.97;;;-0.63;62.99
65546;BME280;52177;55.968;37.498;2024-02-26T00:36:36;100763.88;;;-0.64;62.74
65546;BME280;52177;55.968;37.498;2024-02-26T00:37:07;100763.03;;;-0.65;62.88
65546;BME280;52177;55.968;37.498;2024-02-26T00:37:37;100764.81;;;-0.65;63.14
65546;BME280;52177;55.968;37.498;2024-02-26T00:38:11;100769.22;;;-0.66;62.68
65546;BME280;52177;55.968;37.498;2024-02-26T00:38:41;100759.63;;;-0.67;62.58
65546;BME280;52177;55.968;37.498;2024-02-26T00:39:15;100759.69;;;-0.68;62.69
65546;BME280;52177;55.968;37.498;2024-02-26T00:39:46;100764.94;;;-0.68;62.79
65546;BME280;52177;55.968;37.498;2024-02-26T00:40:16;100764.03;;;-0.67;62.76
65546;BME280;52177;55.968;37.498;2024-02-26T00:40:47;100766.66;;;-0.67;62.76
65546;BME280;52177;55.968;37.498;2024-02-26T00:41:18;100756.25;;;-0.69;62.83
65546;BME280;52177;55.968;37.498;2024-02-26T00:41:48;100764.09;;;-0.69;62.90
65546;BME280;52177;55.968;37.498;2024-02-26T00:42:19;100752.78;;;-0.69;62.78
65546;BME280;52177;55.968;37.498;2024-02-26T00:42:49;100753.56;;;-0.67;62.67
65546;BME280;52177;55.968;37.498;2024-02-26T00:43:20;100758.88;;;-0.69;62.76
65546;BME280;52177;55.968;37.498;2024-02-26T00:43:50;100752.72;;;-0.68;62.83
65546;BME280;52177;55.968;37.498;2024-02-26T00:44:21;100759.63;;;-0.67;63.03
65546;BME280;52177;55.968;37.498;2024-02-26T00:44:51;100759.56;;;-0.65;63.06
65546;BME280;52177;55.968;37.498;2024-02-26T00:45:22;100753.41;;;-0.64;62.81
65546;BME280;52177;55.968;37.498;2024-02-26T00:45:52;100756.00;;;-0.64;62.71
65546;BME280;52177;55.968;37.498;2024-02-26T00:46:22;100755.94;;;-0.62;62.93
65546;BME280;52177;55.968;37.498;2024-02-26T00:46:53;100753.16;;;-0.59;62.91
65546;BME280;52177;55.968;37.498;2024-02-26T00:47:23;100756.53;;;-0.57;62.63
65546;BME280;52177;55.968;37.498;2024-02-26T00:47:53;100750.38;;;-0.56;62.33
65546;BME280;52177;55.968;37.498;2024-02-26T00:48:24;100754.09;;;-0.60;61.67
65546;BME280;52177;55.968;37.498;2024-02-26T00:48:55;100756.78;;;-0.62;61.59
65546;BME280;52177;55.968;37.498;2024-02-26T00:49:26;100751.63;;;-0.64;61.83
65546;BME280;52177;55.968;37.498;2024-02-26T00:49:56;100752.50;;;-0.63;62.19
65546;BME280;52177;55.968;37.498;2024-02-26T00:50:27;100751.53;;;-0.62;62.42
65546;BME280;52177;55.968;37.498;2024-02-26T00:50:57;100753.22;;;-0.61;62.40
65546;BME280;52177;55.968;37.498;2024-02-26T00:51:28;100750.59;;;-0.61;62.31
65546;BME280;52177;55.968;37.498;2024-02-26T00:51:58;100754.16;;;-0.62;62.25
65546;BME280;52177;55.968;37.498;2024-02-26T00:52:28;100761.09;;;-0.61;62.37
65546;BME280;52177;55.968;37.498;2024-02-26T00:53:00;100751.47;;;-0.60;61.94
65546;BME280;52177;55.968;37.498;2024-02-26T00:53:31;100755.00;;;-0.61;61.65
65546;BME280;52177;55.968;37.498;2024-02-26T00:54:01;100751.53;;;-0.62;61.65
65546;BME280;52177;55.968;37.498;2024-02-26T00:54:32;100751.63;;;-0.64;61.98
65546;BME280;52177;55.968;37.498;2024-02-26T00:55:06;100753.31;;;-0.62;62.33
65546;BME280;52177;55.968;37.498;2024-02-26T00:55:36;100760.34;;;-0.63;62.17
65546;BME280;52177;55.968;37.498;2024-02-26T00:56:07;100754.22;;;-0.64;62.00
65546;BME280;52177;55.968;37.498;2024-02-26T00:56:40;100754.34;;;-0.65;61.52
65546;BME280;52177;55.968;37.498;2024-02-26T00:57:10;100751.72;;;-0.65;61.42
65546;BME280;52177;55.968;37.498;2024-02-26T00:57:41;100748.16;;;-0.64;61.51
65546;BME280;52177;55.968;37.498;2024-02-26T00:58:12;100751.63;;;-0.64;61.63
65546;BME280;52177;55.968;37.498;2024-02-26T00:58:45;100751.63;;;-0.64;61.63
65546;BME280;52177;55.968;37.498;2024-02-26T00:59:16;100751.63;;;-0.64;61.40
65546;BME280;52177;55.968;37.498;2024-02-26T00:59:46;100748.16;;;-0.64;61.29
65546;BME280;52177;55.968;37.498;2024-02-26T01:00:17;100747.25;;;-0.63;61.34
65546;BME280;52177;55.968;37.498;2024-02-26T01:00:47;100749.09;;;-0.65;61.41
65546;BME280;52177;55.968;37.498;2024-02-26T01:01:17;100749.22;;;-0.68;61.07
65546;BME280;52177;55.968;37.498;2024-02-26T01:01:48;100746.78;;;-0.71;60.96
65546;BME280;52177;55.968;37.498;2024-02-26T01:02:18;100745.94;;;-0.72;61.23
65546;BME280;52177;55.968;37.498;2024-02-26T01:02:49;100744.09;;;-0.70;61.47
65546;BME280;52177;55.968;37.498;2024-02-26T01:03:22;100745.72;;;-0.67;61.64
65546;BME280;52177;55.968;37.498;2024-02-26T01:03:52;100746.53;;;-0.67;61.04
65546;BME280;52177;55.968;37.498;2024-02-26T01:04:26;100742.16;;;-0.66;61.00
65546;BME280;52177;55.968;37.498;2024-02-26T01:04:56;100739.63;;;-0.68;61.02
65546;BME280;52177;55.968;37.498;2024-02-26T01:05:26;100739.53;;;-0.66;61.15
65546;BME280;52177;55.968;37.498;2024-02-26T01:05:57;100739.63;;;-0.68;61.27
65546;BME280;52177;55.968;37.498;2024-02-26T01:06:27;100745.72;;;-0.67;61.40
65546;BME280;52177;55.968;37.498;2024-02-26T01:06:58;100742.31;;;-0.69;61.27
65546;BME280;52177;55.968;37.498;2024-02-26T01:07:28;100747.56;;;-0.69;61.34
65546;BME280;52177;55.968;37.498;2024-02-26T01:07:58;100742.31;;;-0.69;61.41
65546;BME280;52177;55.968;37.498;2024-02-26T01:08:29;100740.53;;;-0.69;61.56
65546;BME280;52177;55.968;37.498;2024-02-26T01:08:59;100741.38;;;-0.68;61.61
65546;BME280;52177;55.968;37.498;2024-02-26T01:09:29;100740.53;;;-0.69;61.69
65546;BME280;52177;55.968;37.498;2024-02-26T01:10:00;100745.78;;;-0.69;61.41
65546;BME280;52177;55.968;37.498;2024-02-26T01:10:33;100750.34;;;-0.72;60.65
65546;BME280;52177;55.968;37.498;2024-02-26T01:11:04;100746.00;;;-0.73;60.95
65546;BME280;52177;55.968;37.498;2024-02-26T01:11:34;100749.63;;;-0.76;60.46
65546;BME280;52177;55.968;37.498;2024-02-26T01:12:05;100748.78;;;-0.76;60.88
65546;BME280;52177;55.968;37.498;2024-02-26T01:12:35;100742.63;;;-0.75;60.80
65546;BME280;52177;55.968;37.498;2024-02-26T01:13:06;100747.84;;;-0.75;61.14
65546;BME280;52177;55.968;37.498;2024-02-26T01:13:37;100748.72;;;-0.75;61.13
65546;BME280;52177;55.968;37.498;2024-02-26T01:14:08;100739.16;;;-0.76;60.73
65546;BME280;52177;55.968;37.498;2024-02-26T01:14:38;100736.53;;;-0.76;60.73
65546;BME280;52177;55.968;37.498;2024-02-26T01:15:09;100743.72;;;-0.79;60.10
65546;BME280;52177;55.968;37.498;2024-02-26T01:15:39;100753.25;;;-0.78;60.75
65546;BME280;52177;55.968;37.498;2024-02-26T01:16:10;100747.09;;;-0.77;60.81
65546;BME280;52177;55.968;37.498;2024-02-26T01:16:41;100745.41;;;-0.78;61.10
65546;BME280;52177;55.968;37.498;2024-02-26T01:17:11;100739.22;;;-0.77;61.31
65546;BME280;52177;55.968;37.498;2024-02-26T01:17:42;100746.25;;;-0.78;61.00
65546;BME280;52177;55.968;37.498;2024-02-26T01:18:12;100743.63;;;-0.78;60.93
65546;BME280;52177;55.968;37.498;2024-02-26T01:18:42;100741.94;;;-0.79;60.44
65546;BME280;52177;55.968;37.498;2024-02-26T01:19:12;100742.78;;;-0.78;60.92
65546;BME280;52177;55.968;37.498;2024-02-26T01:19:43;100747.09;;;-0.77;61.12
65546;BME280;52177;55.968;37.498;2024-02-26T01:20:13;100745.22;;;-0.75;61.14
65546;BME280;52177;55.968;37.498;2024-02-26T01:20:44;100747.94;;;-0.77;61.29
65546;BME280;52177;55.968;37.498;2024-02-26T01:21:14;100742.78;;;-0.78;61.11
65546;BME280;52177;55.968;37.498;2024-02-26T01:21:45;100748.03;;;-0.78;60.86
65546;BME280;52177;55.968;37.498;2024-02-26T01:22:15;100747.94;;;-0.77;60.72
65546;BME280;52177;55.968;37.498;2024-02-26T01:22:46;100748.03;;;-0.78;60.37
65546;BME280;52177;55.968;37.498;2024-02-26T01:23:16;100748.03;;;-0.78;60.57
65546;BME280;52177;55.968;37.498;2024-02-26T01:23:46;100747.19;;;-0.79;60.65
65546;BME280;52177;55.968;37.498;2024-02-26T01:24:17;100746.34;;;-0.79;60.92
65546;BME280;52177;55.968;37.498;2024-02-26T01:24:47;100747.25;;;-0.80;61.04
65546;BME280;52177;55.968;37.498;2024-02-26T01:25:18;100742.84;;;-0.80;61.02
65546;BME280;52177;55.968;37.498;2024-02-26T01:25:48;100742.09;;;-0.82;60.76
65546;BME280;52177;55.968;37.498;2024-02-26T01:26:18;100750.03;;;-0.83;60.84
65546;BME280;52177;55.968;37.498;2024-02-26T01:26:49;100749.19;;;-0.84;60.98
65546;BME280;52177;55.968;37.498;2024-02-26T01:27:19;100749.25;;;-0.86;61.06
65546;BME280;52177;55.968;37.498;2024-02-26T01:27:50;100760.66;;;-0.87;61.34
65546;BME280;52177;55.968;37.498;2024-02-26T01:28:23;100749.25;;;-0.86;61.55
65546;BME280;52177;55.968;37.498;2024-02-26T01:28:53;100744.88;;;-0.85;61.36
65546;BME280;52177;55.968;37.498;2024-02-26T01:29:25;100753.31;;;-0.80;61.06
65546;BME280;52177;55.968;37.498;2024-02-26T01:29:56;100747.25;;;-0.80;61.29
65546;BME280;52177;55.968;37.498;2024-02-26T01:30:29;100744.63;;;-0.80;61.40
65546;BME280;52177;55.968;37.498;2024-02-26T01:30:59;100746.34;;;-0.79;61.21
65546;BME280;52177;55.968;37.498;2024-02-26T01:31:30;100744.56;;;-0.79;60.99
65546;BME280;52177;55.968;37.498;2024-02-26T01:32:00;100748.84;;;-0.78;60.85
65546;BME280;52177;55.968;37.498;2024-02-26T01:32:31;100750.56;;;-0.77;61.13
65546;BME280;52177;55.968;37.498;2024-02-26T01:33:01;100745.34;;;-0.77;60.88
65546;BME280;52177;55.968;37.498;2024-02-26T01:33:32;100743.56;;;-0.76;61.12
65546;BME280;52177;55.968;37.498;2024-02-26T01:34:02;100751.34;;;-0.75;61.17
65546;BME280;52177;55.968;37.498;2024-02-26T01:34:32;100747.78;;;-0.74;61.25
65546;BME280;52177;55.968;37.498;2024-02-26T01:35:04;100750.34;;;-0.72;61.32
65546;BME280;52177;55.968;37.498;2024-02-26T01:35:35;100748.56;;;-0.72;61.68
65546;BME280;52177;55.968;37.498;2024-02-26T01:36:06;100750.25;;;-0.71;61.66
65546;BME280;52177;55.968;37.498;2024-02-26T01:36:36;100749.41;;;-0.71;61.60
65546;BME280;52177;55.968;37.498;2024-02-26T01:37:07;100751.94;;;-0.70;61.71
65546;BME280;52177;55.968;37.498;2024-02-26T01:37:38;100751.09;;;-0.70;61.40
65546;BME280;52177;55.968;37.498;2024-02-26T01:38:09;100746.78;;;-0.71;61.13
65546;BME280;52177;55.968;37.498;2024-02-26T01:38:39;100749.41;;;-0.71;61.18
65546;BME280;52177;55.968;37.498;2024-02-26T01:39:09;100750.25;;;-0.71;61.39
65546;BME280;52177;55.968;37.498;2024-02-26T01:39:42;100751.94;;;-0.70;61.58
65546;BME280;52177;55.968;37.498;2024-02-26T01:40:13;100748.38;;;-0.69;61.50
65546;BME280;52177;55.968;37.498;2024-02-26T01:40:48;100751.94;;;-0.70;61.57
65546;BME280;52177;55.968;37.498;2024-02-26T01:41:18;100752.09;;;-0.73;61.35
65546;BME280;52177;55.968;37.498;2024-02-26T01:41:48;100755.63;;;-0.74;61.54
65546;BME280;52177;55.968;37.498;2024-02-26T01:42:19;100757.31;;;-0.73;61.51
65546;BME280;52177;55.968;37.498;2024-02-26T01:42:52;100751.19;;;-0.72;61.44
65546;BME280;52177;55.968;37.498;2024-02-26T01:43:22;100752.09;;;-0.73;61.45
65546;BME280;52177;55.968;37.498;2024-02-26T01:43:53;100753.03;;;-0.74;61.42
65546;BME280;52177;55.968;37.498;2024-02-26T01:44:23;100746.00;;;-0.73;61.30
65546;BME280;52177;55.968;37.498;2024-02-26T01:44:53;100746.00;;;-0.73;61.34
65546;BME280;52177;55.968;37.498;2024-02-26T01:45:24;100751.34;;;-0.75;61.30
65546;BME280;52177;55.968;37.498;2024-02-26T01:45:55;100753.97;;;-0.75;61.40
65546;BME280;52177;55.968;37.498;2024-02-26T01:46:25;100740.94;;;-0.76;61.22
65546;BME280;52177;55.968;37.498;2024-02-26T01:46:56;100747.00;;;-0.76;61.25
65546;BME280;52177;55.968;37.498;2024-02-26T01:47:30;100740.09;;;-0.77;61.02
65546;BME280;52177;55.968;37.498;2024-02-26T01:48:00;100744.47;;;-0.77;60.99
65546;BME280;52177;55.968;37.498;2024-02-26T01:48:31;100742.78;;;-0.78;61.17
65546;BME280;52177;55.968;37.498;2024-02-26T01:49:02;100741.00;;;-0.78;61.16
65546;BME280;52177;55.968;37.498;2024-02-26T01:49:33;100746.25;;;-0.78;61.02
65546;BME280;52177;55.968;37.498;2024-02-26T01:50:08;100735.88;;;-0.79;60.79
65546;BME280;52177;55.968;37.498;2024-02-26T01:50:40;100741.94;;;-0.79;60.75
65546;BME280;52177;55.968;37.498;2024-02-26T01:51:12;100741.94;;;-0.79;60.65
65546;BME280;52177;55.968;37.498;2024-02-26T01:51:47;100732.38;;;-0.80;60.78
65546;BME280;52177;55.968;37.498;2024-02-26T01:52:18;100737.78;;;-0.83;60.65
65546;BME280;52177;55.968;37.498;2024-02-26T01:52:50;100741.34;;;-0.84;60.89
65546;BME280;52177;55.968;37.498;2024-02-26T01:53:21;100744.09;;;-0.87;60.78
65546;BME280;52177;55.968;37.498;2024-02-26T01:53:51;100743.25;;;-0.88;60.90
65546;BME280;52177;55.968;37.498;2024-02-26T01:54:22;100742.41;;;-0.88;61.25
65546;BME280;52177;55.968;37.498;2024-02-26T01:54:52;100745.03;;;-0.88;61.28
65546;BME280;52177;55.968;37.498;2024-02-26T01:55:24;100743.25;;;-0.88;61.43
65546;BME280;52177;55.968;37.498;2024-02-26T01:55:59;100743.25;;;-0.88;61.66
65546;BME280;52177;55.968;37.498;2024-02-26T01:56:30;100748.41;;;-0.86;61.66
65546;BME280;52177;55.968;37.498;2024-02-26T01:57:02;100745.81;;;-0.86;61.28
65546;BME280;52177;55.968;37.498;2024-02-26T01:57:33;100740.56;;;-0.86;61.17
65546;BME280;52177;55.968;37.498;2024-02-26T01:58:05;100730.16;;;-0.88;61.31
65546;BME280;52177;55.968;37.498;2024-02-26T01:58:36;100730.16;;;-0.88;61.06
65546;BME280;52177;55.968;37.498;2024-02-26T01:59:07;100741.56;;;-0.89;61.01
65546;BME280;52177;55.968;37.498;2024-02-26T01:59:39;100746.88;;;-0.90;61.06
65546;BME280;52177;55.968;37.498;2024-02-26T02:00:11;100741.56;;;-0.89;60.82
65546;BME280;52177;55.968;37.498;2024-02-26T02:00:44;100736.16;;;-0.86;60.71
65546;BME280;52177;55.968;37.498;2024-02-26T02:01:15;100737.09;;;-0.87;60.62
65546;BME280;52177;55.968;37.498;2024-02-26T02:01:49;100743.19;;;-0.86;60.94
65546;BME280;52177;55.968;37.498;2024-02-26T02:02:23;100732.72;;;-0.86;60.92
65546;BME280;52177;55.968;37.498;2024-02-26T02:02:54;100732.72;;;-0.86;60.84
65546;BME280;52177;55.968;37.498;2024-02-26T02:03:25;100741.41;;;-0.86;61.00
65546;BME280;52177;55.968;37.498;2024-02-26T02:03:57;100731.88;;;-0.87;60.79
65546;BME280;52177;55.968;37.498;2024-02-26T02:04:29;100734.41;;;-0.85;60.63
65546;BME280;52177;55.968;37.498;2024-02-26T02:05:00;100731.78;;;-0.85;60.89
65546;BME280;52177;55.968;37.498;2024-02-26T02:05:31;100726.63;;;-0.87;60.47
65546;BME280;52177;55.968;37.498;2024-02-26T02:06:02;100731.00;;;-0.87;60.49
65546;BME280;52177;55.968;37.498;2024-02-26T02:06:34;100723.16;;;-0.87;60.76
65546;BME280;52177;55.968;37.498;2024-02-26T02:07:06;100727.53;;;-0.88;60.47
65546;BME280;52177;55.968;37.498;2024-02-26T02:07:36;100738.09;;;-0.89;60.04
65546;BME280;52177;55.968;37.498;2024-02-26T02:08:07;100733.84;;;-0.92;60.51
65546;BME280;52177;55.968;37.498;2024-02-26T02:08:38;100726.00;;;-0.92;60.98
65546;BME280;52177;55.968;37.498;2024-02-26T02:09:09;100726.00;;;-0.92;60.87
65546;BME280;52177;55.968;37.498;2024-02-26T02:09:39;100726.88;;;-0.91;61.01
65546;BME280;52177;55.968;37.498;2024-02-26T02:10:10;100729.50;;;-0.91;61.15
65546;BME280;52177;55.968;37.498;2024-02-26T02:10:41;100726.88;;;-0.91;61.17
65546;BME280;52177;55.968;37.498;2024-02-26T02:11:12;100722.47;;;-0.91;61.06
65546;BME280;52177;55.968;37.498;2024-02-26T02:11:44;100732.94;;;-0.91;60.98
65546;BME280;52177;55.968;37.498;2024-02-26T02:12:16;100730.31;;;-0.91;60.71
65546;BME280;52177;55.968;37.498;2024-02-26T02:12:46;100721.69;;;-0.93;60.45
65546;BME280;52177;55.968;37.498;2024-02-26T02:13:17;100726.00;;;-0.92;60.62
65546;BME280;52177;55.968;37.498;2024-02-26T02:13:47;100723.47;;;-0.93;60.63
65546;BME280;52177;55.968;37.498;2024-02-26T02:14:18;100734.78;;;-0.93;60.71
65546;BME280;52177;55.968;37.498;2024-02-26T02:14:48;100725.22;;;-0.94;60.75
65546;BME280;52177;55.968;37.498;2024-02-26T02:15:18;100724.31;;;-0.93;60.86
65546;BME280;52177;55.968;37.498;2024-02-26T02:15:49;100733.06;;;-0.94;60.53
65546;BME280;52177;55.968;37.498;2024-02-26T02:16:19;100723.47;;;-0.93;60.77
65546;BME280;52177;55.968;37.498;2024-02-26T02:16:50;100730.47;;;-0.94;61.05
65546;BME280;52177;55.968;37.498;2024-02-26T02:17:23;100739.19;;;-0.93;61.06
65546;BME280;52177;55.968;37.498;2024-02-26T02:17:54;100729.72;;;-0.96;60.34
65546;BME280;52177;55.968;37.498;2024-02-26T02:18:24;100733.25;;;-0.97;60.43
65546;BME280;52177;55.968;37.498;2024-02-26T02:18:54;100730.63;;;-0.97;60.47
65546;BME280;52177;55.968;37.498;2024-02-26T02:19:25;100729.72;;;-0.96;60.28
65546;BME280;52177;55.968;37.498;2024-02-26T02:19:55;100732.41;;;-0.97;60.29
65546;BME280;52177;55.968;37.498;2024-02-26T02:20:31;100730.63;;;-0.97;60.49
65546;BME280;52177;55.968;37.498;2024-02-26T02:21:03;100731.56;;;-0.98;59.99
65546;BME280;52177;55.968;37.498;2024-02-26T02:21:33;100728.09;;;-0.98;60.23
65546;BME280;52177;55.968;37.498;2024-02-26T02:22:04;100735.97;;;-0.98;60.39
65546;BME280;52177;55.968;37.498;2024-02-26T02:22:34;100734.94;;;-0.96;60.63
65546;BME280;52177;55.968;37.498;2024-02-26T02:23:07;100729.72;;;-0.96;60.46
65546;BME280;52177;55.968;37.498;2024-02-26T02:23:38;100722.78;;;-0.97;60.04
65546;BME280;52177;55.968;37.498;2024-02-26T02:24:09;100727.09;;;-0.96;60.10
65546;BME280;52177;55.968;37.498;2024-02-26T02:24:40;100729.00;;;-0.99;59.97
65546;BME280;52177;55.968;37.498;2024-02-26T02:25:10;100727.34;;;-1.00;59.97
65546;BME280;52177;55.968;37.498;2024-02-26T02:25:40;100727.47;;;-1.03;59.66
65546;BME280;52177;55.968;37.498;2024-02-26T02:26:11;100730.94;;;-1.03;60.09
65546;BME280;52177;55.968;37.498;2024-02-26T02:26:41;100733.56;;;-1.03;60.32
65546;BME280;52177;55.968;37.498;2024-02-26T02:27:12;100724.00;;;-1.04;60.30
65546;BME280;52177;55.968;37.498;2024-02-26T02:27:42;100735.31;;;-1.03;60.31
65546;BME280;52177;55.968;37.498;2024-02-26T02:28:13;100730.94;;;-1.03;60.16
65546;BME280;52177;55.968;37.498;2024-02-26T02:28:44;100733.63;;;-1.04;60.52
65546;BME280;52177;55.968;37.498;2024-02-26T02:29:15;100736.25;;;-1.04;60.72
65546;BME280;52177;55.968;37.498;2024-02-26T02:29:46;100737.09;;;-1.04;60.92
65546;BME280;52177;55.968;37.498;2024-02-26T02:30:17;100731.84;;;-1.04;60.88
65546;BME280;52177;55.968;37.498;2024-02-26T02:30:48;100727.47;;;-1.03;60.72
65546;BME280;52177;55.968;37.498;2024-02-26T02:31:19;100732.63;;;-1.02;60.60
65546;BME280;52177;55.968;37.498;2024-02-26T02:31:49;100728.16;;;-1.00;60.23
65546;BME280;52177;55.968;37.498;2024-02-26T02:32:24;100726.47;;;-1.01;60.12
65546;BME280;52177;55.968;37.498;2024-02-26T02:32:55;100728.16;;;-1.00;60.40
65546;BME280;52177;55.968;37.498;2024-02-26T02:33:26;100730.72;;;-0.98;59.96
65546;BME280;52177;55.968;37.498;2024-02-26T02:33:56;100725.56;;;-1.00;59.87
65546;BME280;52177;55.968;37.498;2024-02-26T02:34:28;100727.34;;;-1.00;60.30
65546;BME280;52177;55.968;37.498;2024-02-26T02:34:58;100724.78;;;-1.02;60.78
65546;BME280;52177;55.968;37.498;2024-02-26T02:35:29;100728.25;;;-1.01;61.00
65546;BME280;52177;55.968;37.498;2024-02-26T02:35:59;100729.06;;;-1.01;60.89
65546;BME280;52177;55.968;37.498;2024-02-26T02:36:30;100726.47;;;-1.01;60.77
65546;BME280;52177;55.968;37.498;2024-02-26T02:37:00;100726.56;;;-1.02;60.62
65546;BME280;52177;55.968;37.498;2024-02-26T02:37:30;100725.63;;;-1.01;60.84
65546;BME280;52177;55.968;37.498;2024-02-26T02:38:01;100728.25;;;-1.01;60.93
65546;BME280;52177;55.968;37.498;2024-02-26T02:38:31;100725.63;;;-1.01;60.73
65546;BME280;52177;55.968;37.498;2024-02-26T02:39:04;100721.22;;;-1.01;60.66
65546;BME280;52177;55.968;37.498;2024-02-26T02:39:34;100724.72;;;-1.00;60.63